Time;durP1;ratioP1;P1;durP2;ratioP2;P2;SDS_P1;SDS_P2;PMS_P1;PMS_P2;Temp;Humidity;BMP_temperature;BMP_pressure;BME280_temperature;BME280_humidity;BME280_pressure;Samples;Min_cycle;Max_cycle;Signal;HPM_P1;HPM_P2
2022/03/24 00:03:35;;;;;;;22.95;20.40;;;;;;;;;;12735955;27;20030;-76
2022/03/24 00:09:37;;;;;;;21.03;18.93;;;;;;;;;;12718984;27;20046;-77
2022/03/24 00:15:39;;;;;;;18.95;16.75;;;;;;;;;;12735533;27;20043;-77
2022/03/24 00:21:41;;;;;;;22.15;19.95;;;;;;;;;;12753615;27;20061;-77
2022/03/24 00:27:43;;;;;;;22.83;20.53;;;;;;;;;;12735290;27;20404;-77
2022/03/24 00:33:45;;;;;;;23.20;20.80;;;;;;;;;;12734755;27;20035;-77
2022/03/24 00:39:48;;;;;;;21.85;19.58;;;;;;;;;;12752368;27;20023;-77
2022/03/24 00:45:52;;;;;;;20.30;18.27;;;;;;;;;;12733804;27;20152;-77
2022/03/24 00:51:54;;;;;;;22.80;20.52;;;;;;;;;;12716370;27;20031;-77
2022/03/24 00:57:55;;;;;;;21.30;19.33;;;;;;;;;;12733727;27;20047;-77
2022/03/24 01:03:57;;;;;;;22.17;19.98;;;;;;;;;;12716262;27;20042;-77
2022/03/24 01:09:59;;;;;;;20.33;18.20;;;;;;;;;;12751291;27;20419;-77
2022/03/24 01:16:03;;;;;;;21.98;19.75;;;;;;;;;;12755237;27;20027;-77
2022/03/24 01:22:05;;;;;;;18.05;16.27;;;;;;;;;;12723079;27;20043;-77
2022/03/24 01:28:07;;;;;;;21.83;19.10;;;;;;;;;;12715246;27;20059;-77
2022/03/24 01:34:09;;;;;;;23.00;20.50;;;;;;;;;;12749920;27;20031;-77
2022/03/24 01:40:12;;;;;;;23.52;21.23;;;;;;;;;;12731101;27;20039;-77
2022/03/24 01:46:14;;;;;;;22.48;20.40;;;;;;;;;;12730825;27;20031;-77
2022/03/24 01:52:18;;;;;;;21.30;19.30;;;;;;;;;;12730561;27;20031;-77
2022/03/24 01:58:20;;;;;;;22.65;20.38;;;;;;;;;;12748695;27;20050;-77
2022/03/24 02:04:22;;;;;;;24.35;22.08;;;;;;;;;;12713760;27;20034;-76
2022/03/24 02:10:24;;;;;;;25.52;22.80;;;;;;;;;;12728663;27;20035;-77
2022/03/24 02:16:30;;;;;;;23.75;21.25;;;;;;;;;;12728719;27;20039;-77
2022/03/24 02:22:32;;;;;;;24.60;22.15;;;;;;;;;;12711543;27;20483;-77
2022/03/24 02:28:34;;;;;;;26.73;23.95;;;;;;;;;;12757001;27;20043;-77
2022/03/24 02:34:47;;;;;;;25.80;23.30;;;;;;;;;;12744226;27;20480;-77
2022/03/24 02:40:51;;;;;;;25.23;22.80;;;;;;;;;;12744434;27;20042;-77
2022/03/24 02:46:54;;;;;;;24.80;22.40;;;;;;;;;;12725593;27;20035;-77
2022/03/24 02:52:56;;;;;;;25.65;23.17;;;;;;;;;;12755547;27;20042;-77
2022/03/24 02:58:58;;;;;;;25.60;22.95;;;;;;;;;;12708959;27;20043;-77
2022/03/24 03:05:01;;;;;;;25.05;22.55;;;;;;;;;;12734214;27;20035;-77
2022/03/24 03:11:02;;;;;;;28.48;25.75;;;;;;;;;;12706566;27;20439;-77
2022/03/24 03:17:04;;;;;;;25.67;23.10;;;;;;;;;;12741641;27;20039;-77
2022/03/24 03:23:06;;;;;;;25.48;22.95;;;;;;;;;;12723519;28;20046;-76
2022/03/24 03:29:09;;;;;;;34.58;31.08;;;;;;;;;;12723581;28;20086;-76
2022/03/24 03:35:11;;;;;;;28.02;25.27;;;;;;;;;;12723681;28;20047;-77
2022/03/24 03:41:14;;;;;;;29.05;26.23;;;;;;;;;;12741354;28;20388;-77
2022/03/24 03:47:17;;;;;;;33.25;29.95;;;;;;;;;;12706336;28;20027;-77
2022/03/24 03:53:18;;;;;;;31.93;28.67;;;;;;;;;;12722654;28;20039;-77
2022/03/24 03:59:20;;;;;;;29.95;27.05;;;;;;;;;;12740941;28;20043;-77
2022/03/24 04:05:25;;;;;;;27.88;25.17;;;;;;;;;;12740535;28;20027;-77
2022/03/24 04:11:27;;;;;;;26.92;24.08;;;;;;;;;;12740742;28;20023;-78
2022/03/24 04:17:28;;;;;;;25.63;23.15;;;;;;;;;;12722009;28;20399;-78
2022/03/24 04:23:31;;;;;;;26.00;23.52;;;;;;;;;;12742008;27;20038;-78
2022/03/24 04:29:32;;;;;;;25.57;22.93;;;;;;;;;;12747400;27;20047;-78
2022/03/24 04:35:34;;;;;;;26.60;23.95;;;;;;;;;;12744361;27;20054;-77
2022/03/24 04:41:36;;;;;;;25.95;23.33;;;;;;;;;;12732709;27;20027;-78
2022/03/24 04:47:38;;;;;;;25.98;23.63;;;;;;;;;;12715471;27;20035;-77
2022/03/24 04:53:40;;;;;;;25.20;22.67;;;;;;;;;;12749973;27;20051;-78
2022/03/24 04:59:42;;;;;;;23.95;21.70;;;;;;;;;;12714178;27;20042;-78
2022/03/24 05:05:44;;;;;;;25.02;22.63;;;;;;;;;;12731899;27;20404;-78
2022/03/24 05:11:46;;;;;;;25.92;23.23;;;;;;;;;;12752006;27;20507;-78
2022/03/24 05:17:47;;;;;;;35.28;31.63;;;;;;;;;;12730007;27;20046;-78
2022/03/24 05:23:49;;;;;;;25.30;22.77;;;;;;;;;;12726340;27;20043;-80
2022/03/24 05:29:53;;;;;;;27.15;24.63;;;;;;;;;;12740370;27;20255;-79
2022/03/24 05:35:55;;;;;;;27.23;24.60;;;;;;;;;;12747940;27;20042;-78
2022/03/24 05:41:57;;;;;;;25.90;23.33;;;;;;;;;;12731555;27;20043;-77
2022/03/24 05:47:59;;;;;;;26.60;24.02;;;;;;;;;;12731266;27;20042;-79
2022/03/24 05:54:23;;;;;;;24.23;21.95;;;;;;;;;;12720110;27;20036;-78
2022/03/24 06:00:24;;;;;;;25.58;23.17;;;;;;;;;;12746464;27;20042;-78
2022/03/24 06:06:26;;;;;;;24.85;22.65;;;;;;;;;;12727639;27;20027;-78
2022/03/24 06:12:28;;;;;;;27.90;25.10;;;;;;;;;;12726676;27;20031;-79
2022/03/24 06:18:32;;;;;;;24.75;22.55;;;;;;;;;;12726294;27;20050;-79
2022/03/24 06:24:34;;;;;;;26.17;23.58;;;;;;;;;;12750140;27;20047;-79
2022/03/24 06:30:37;;;;;;;24.15;21.92;;;;;;;;;;12723412;27;20041;-79
2022/03/24 06:36:39;;;;;;;22.17;20.08;;;;;;;;;;12723341;27;20047;-78
2022/03/24 06:42:40;;;;;;;21.52;19.42;;;;;;;;;;12728210;27;20420;-78
2022/03/24 06:48:42;;;;;;;18.58;16.88;;;;;;;;;;12703722;27;20043;-78
2022/03/24 06:54:44;;;;;;;17.23;15.52;;;;;;;;;;12718424;27;20031;-77
2022/03/24 07:00:46;;;;;;;14.23;12.90;;;;;;;;;;12732637;27;20039;-78
2022/03/24 07:06:48;;;;;;;14.13;12.93;;;;;;;;;;12707506;27;20027;-80
2022/03/24 07:12:50;;;;;;;12.20;11.00;;;;;;;;;;12729190;27;20054;-80
2022/03/24 07:18:51;;;;;;;15.48;13.98;;;;;;;;;;12705630;27;20514;-78
2022/03/24 07:24:53;;;;;;;14.68;13.38;;;;;;;;;;12688478;27;20492;-79
2022/03/24 07:30:55;;;;;;;13.32;12.07;;;;;;;;;;12720405;27;20030;-80
2022/03/24 07:36:57;;;;;;;10.97;9.80;;;;;;;;;;12699602;28;20519;-80
2022/03/24 07:42:59;;;;;;;10.13;8.60;;;;;;;;;;12711233;27;20043;-80
2022/03/24 07:49:01;;;;;;;9.38;8.43;;;;;;;;;;12702852;28;20031;-80
2022/03/24 07:55:07;;;;;;;7.25;6.55;;;;;;;;;;12717605;27;20050;-79
2022/03/24 08:01:08;;;;;;;9.02;8.05;;;;;;;;;;12707418;27;20506;-78
2022/03/24 08:07:10;;;;;;;8.60;7.65;;;;;;;;;;12718551;27;20034;-78
2022/03/24 08:13:13;;;;;;;7.32;6.65;;;;;;;;;;12716890;27;20031;-79
2022/03/24 08:19:15;;;;;;;;;;;;;;;;;;12708211;27;20048;-78
2022/03/24 08:25:17;;;;;;;6.00;5.47;;;;;;;;;;12716408;27;19927;-78
2022/03/24 08:31:19;;;;;;;6.17;5.47;;;;;;;;;;12705651;27;20041;-78
2022/03/24 08:37:20;;;;;;;7.05;6.35;;;;;;;;;;12711500;27;20043;-78
2022/03/24 08:43:22;;;;;;;6.15;5.65;;;;;;;;;;12705444;27;20034;-79
2022/03/24 08:49:24;;;;;;;9.88;8.10;;;;;;;;;;12709624;27;20034;-78
2022/03/24 08:55:26;;;;;;;8.20;7.50;;;;;;;;;;12719622;27;20047;-78
2022/03/24 09:01:28;;;;;;;7.25;6.55;;;;;;;;;;12719565;27;20523;-78
2022/03/24 09:07:30;;;;;;;;;;;;;;;;;;12725331;27;20027;-78
2022/03/24 09:13:32;;;;;;;8.13;6.15;;;;;;;;;;12741858;27;19911;-78
2022/03/24 09:19:34;;;;;;;6.43;5.85;;;;;;;;;;12712717;27;20054;-79
2022/03/24 09:25:38;;;;;;;8.90;7.13;;;;;;;;;;12718289;27;20047;-79
2022/03/24 09:31:39;;;;;;;7.25;6.25;;;;;;;;;;12705978;27;20403;-79
2022/03/24 09:37:42;;;;;;;7.25;6.55;;;;;;;;;;12725596;27;20046;-79
2022/03/24 09:43:44;;;;;;;6.80;6.10;;;;;;;;;;12741091;27;20032;-78
2022/03/24 09:49:46;;;;;;;8.48;5.72;;;;;;;;;;12716556;27;20046;-80
2022/03/24 09:55:48;;;;;;;7.47;6.78;;;;;;;;;;12721808;27;20035;-79
2022/03/24 10:01:50;;;;;;;8.83;7.43;;;;;;;;;;12742651;27;20399;-78
2022/03/24 10:07:52;;;;;;;10.37;9.27;;;;;;;;;;12746654;27;20494;-79
2022/03/24 10:13:54;;;;;;;6.60;6.00;;;;;;;;;;12712977;27;20057;-77
2022/03/24 10:20:08;;;;;;;8.10;7.28;;;;;;;;;;12723005;27;20038;-78
2022/03/24 10:26:09;;;;;;;7.65;6.95;;;;;;;;;;12711538;27;20059;-77
2022/03/24 10:32:14;;;;;;;7.43;6.72;;;;;;;;;;12708898;27;20035;-78
2022/03/24 10:38:16;;;;;;;8.57;7.68;;;;;;;;;;12723775;27;20047;-77
2022/03/24 10:44:18;;;;;;;7.73;7.03;;;;;;;;;;12722529;27;20019;-78
2022/03/24 10:50:28;;;;;;;8.23;7.13;;;;;;;;;;12726542;27;20039;-78
2022/03/24 10:56:31;;;;;;;7.30;6.60;;;;;;;;;;12726488;27;20054;-78
2022/03/24 11:02:34;;;;;;;10.05;8.38;;;;;;;;;;12739818;27;20430;-78
2022/03/24 11:08:36;;;;;;;8.57;7.72;;;;;;;;;;12716564;27;20399;-79
2022/03/24 11:14:44;;;;;;;10.25;7.53;;;;;;;;;;12705750;27;20042;-81
2022/03/24 11:20:46;;;;;;;10.20;7.25;;;;;;;;;;12724428;27;20036;-79
2022/03/24 11:26:48;;;;;;;7.57;6.57;;;;;;;;;;12732640;27;20267;-79
2022/03/24 11:32:52;;;;;;;6.63;6.00;;;;;;;;;;12701568;27;20268;-78
2022/03/24 11:38:55;;;;;;;6.82;6.22;;;;;;;;;;12734800;27;20050;-79
2022/03/24 11:45:01;;;;;;;8.43;7.45;;;;;;;;;;12715350;27;20023;-79
2022/03/24 11:51:04;;;;;;;8.77;7.78;;;;;;;;;;12719820;27;20026;-79
2022/03/24 11:57:25;;;;;;;9.43;7.93;;;;;;;;;;12720474;27;20054;-79
2022/03/24 12:03:45;;;;;;;9.75;8.75;;;;;;;;;;12710642;27;20392;-79
2022/03/24 12:09:54;;;;;;;9.23;8.32;;;;;;;;;;12718754;27;20038;-80
2022/03/24 12:16:18;;;;;;;9.27;8.43;;;;;;;;;;12720015;27;20051;-79
2022/03/24 12:22:23;;;;;;;10.23;8.98;;;;;;;;;;12711681;27;20035;-77
2022/03/24 12:28:27;;;;;;;12.55;10.35;;;;;;;;;;12742072;27;20504;-79
2022/03/24 12:34:47;;;;;;;17.50;15.57;;;;;;;;;;12743130;27;20372;-78
2022/03/24 12:41:17;;;;;;;11.90;10.65;;;;;;;;;;12728839;27;20058;-78
2022/03/24 12:47:34;;;;;;;10.57;9.38;;;;;;;;;;12636353;28;20040;-78
2022/03/24 12:53:52;;;;;;;10.57;9.40;;;;;;;;;;12628106;28;20024;-79
2022/03/24 12:59:54;;;;;;;14.57;13.02;;;;;;;;;;12618614;28;20384;-80
2022/03/24 13:06:00;;;;;;;13.50;10.27;;;;;;;;;;12628583;28;20720;-79
2022/03/24 13:12:05;;;;;;;11.05;8.77;;;;;;;;;;12633945;28;20040;-79
2022/03/24 13:18:08;;;;;;;12.93;11.68;;;;;;;;;;12631690;28;20032;-81
2022/03/24 13:24:19;;;;;;;11.15;9.98;;;;;;;;;;12632371;28;20377;-79
2022/03/24 13:30:23;;;;;;;10.00;9.00;;;;;;;;;;12624750;28;20036;-81
2022/03/24 13:36:25;;;;;;;8.80;7.82;;;;;;;;;;12626802;28;20397;-79
2022/03/24 13:42:27;;;;;;;9.85;8.65;;;;;;;;;;12628885;28;20484;-79
2022/03/24 13:48:29;;;;;;;8.02;7.18;;;;;;;;;;12625118;28;20040;-79
2022/03/24 13:54:31;;;;;;;;;;;;;;;;;;12611058;28;20039;-80
2022/03/24 14:00:41;;;;;;;6.28;4.93;;;;;;;;;;12621431;28;19920;-80
2022/03/24 14:07:01;;;;;;;6.05;5.45;;;;;;;;;;12612385;28;20062;-81
2022/03/24 14:13:11;;;;;;;5.43;4.93;;;;;;;;;;12615283;28;20047;-80
2022/03/24 14:19:21;;;;;;;5.85;4.30;;;;;;;;;;12630474;28;20504;-80
2022/03/24 14:25:24;;;;;;;5.10;4.15;;;;;;;;;;12624837;28;20063;-79
2022/03/24 14:31:28;;;;;;;4.53;4.13;;;;;;;;;;12625049;28;20381;-79
2022/03/24 14:37:38;;;;;;;3.58;3.22;;;;;;;;;;12619034;28;20040;-79
2022/03/24 14:43:39;;;;;;;4.00;3.60;;;;;;;;;;12627247;28;20384;-81
2022/03/24 14:49:41;;;;;;;4.30;3.40;;;;;;;;;;12634044;28;20031;-80
2022/03/24 14:55:44;;;;;;;4.70;3.95;;;;;;;;;;12632182;28;20385;-81
2022/03/24 15:01:45;;;;;;;14.73;4.07;;;;;;;;;;12623746;28;20040;-79
2022/03/24 15:07:52;;;;;;;;;;;;;;;;;;12628373;28;20531;-81
2022/03/24 15:20:15;;;;;;;3.42;3.13;;;;;;;;;;12656192;28;20504;-81
2022/03/24 15:26:17;;;;;;;3.70;3.40;;;;;;;;;;12641586;28;20056;-80
2022/03/24 15:32:20;;;;;;;3.92;3.53;;;;;;;;;;12640042;28;20076;-81
2022/03/24 15:38:23;;;;;;;3.38;3.08;;;;;;;;;;12640869;28;20040;-81
2022/03/24 15:44:24;;;;;;;5.00;4.50;;;;;;;;;;12640091;28;20036;-81
2022/03/24 15:50:26;;;;;;;4.22;3.03;;;;;;;;;;12622182;28;20036;-82
2022/03/24 15:56:28;;;;;;;3.83;3.03;;;;;;;;;;12639718;28;20044;-81
2022/03/24 16:02:29;;;;;;;3.47;3.17;;;;;;;;;;12653150;28;20037;-81
2022/03/24 16:08:31;;;;;;;3.20;2.78;;;;;;;;;;12624771;28;20043;-80
2022/03/24 16:14:33;;;;;;;5.07;3.97;;;;;;;;;;12640853;28;20028;-80
2022/03/24 16:20:35;;;;;;;3.75;3.33;;;;;;;;;;12646174;28;20040;-81
2022/03/24 16:26:37;;;;;;;5.68;4.78;;;;;;;;;;12651636;28;20052;-81
2022/03/24 16:32:39;;;;;;;7.97;7.18;;;;;;;;;;12648754;28;20028;-82
2022/03/24 16:38:41;;;;;;;7.60;6.53;;;;;;;;;;12650583;28;20488;-79
2022/03/24 16:44:42;;;;;;;12.65;9.80;;;;;;;;;;12649411;28;20032;-79
2022/03/24 16:50:45;;;;;;;12.15;10.43;;;;;;;;;;12650471;28;20047;-81
2022/03/24 16:56:46;;;;;;;12.02;9.90;;;;;;;;;;12633202;28;20500;-81
2022/03/24 17:02:48;;;;;;;11.90;9.03;;;;;;;;;;12648732;28;20032;-81
2022/03/24 17:08:50;;;;;;;9.73;8.73;;;;;;;;;;12663215;28;20366;-81
2022/03/24 17:14:52;;;;;;;9.30;8.30;;;;;;;;;;12645695;28;20397;-81
2022/03/24 17:20:54;;;;;;;;;;;;;;;;;;12645748;28;20040;-81
2022/03/24 17:26:55;;;;;;;9.98;7.88;;;;;;;;;;12646547;28;19927;-81
2022/03/24 17:32:57;;;;;;;7.87;6.73;;;;;;;;;;12646085;28;20032;-81
2022/03/24 17:38:59;;;;;;;10.97;7.20;;;;;;;;;;12645444;28;20145;-82
2022/03/24 17:45:01;;;;;;;11.50;8.93;;;;;;;;;;12655131;28;20043;-82
2022/03/24 17:51:02;;;;;;;12.63;9.30;;;;;;;;;;12653082;28;20036;-82
2022/03/24 17:57:04;;;;;;;11.07;8.37;;;;;;;;;;12630748;28;20048;-82
2022/03/24 18:03:06;;;;;;;9.70;8.10;;;;;;;;;;12644258;28;20036;-81
2022/03/24 18:09:08;;;;;;;10.87;9.77;;;;;;;;;;12645021;28;20059;-81
2022/03/24 18:15:10;;;;;;;10.43;9.07;;;;;;;;;;12644678;28;20024;-82
2022/03/24 18:21:11;;;;;;;16.33;12.20;;;;;;;;;;12626042;28;20055;-80
2022/03/24 18:27:13;;;;;;;14.53;11.90;;;;;;;;;;12646207;28;20245;-80
2022/03/24 18:33:15;;;;;;;15.48;12.15;;;;;;;;;;12664382;28;20044;-81
2022/03/24 18:39:17;;;;;;;14.23;11.73;;;;;;;;;;12645924;28;20058;-81
2022/03/24 18:45:19;;;;;;;15.55;12.35;;;;;;;;;;12643735;28;20485;-82
2022/03/24 18:51:21;;;;;;;14.60;11.53;;;;;;;;;;12654263;28;20036;-81
2022/03/24 18:57:23;;;;;;;17.73;12.43;;;;;;;;;;12646212;28;20048;-81
2022/03/24 19:03:25;;;;;;;14.00;11.33;;;;;;;;;;12653935;28;20028;-81
2022/03/24 19:09:27;;;;;;;16.42;12.15;;;;;;;;;;12645367;28;20043;-81
2022/03/24 19:15:29;;;;;;;15.95;12.43;;;;;;;;;;12644961;28;20042;-82
2022/03/24 19:21:30;;;;;;;15.77;12.25;;;;;;;;;;12643899;28;20398;-82
2022/03/24 19:27:34;;;;;;;18.92;14.45;;;;;;;;;;12644066;28;20044;-81
2022/03/24 19:33:36;;;;;;;15.77;11.18;;;;;;;;;;12641684;28;20035;-86
2022/03/24 19:39:38;;;;;;;17.23;12.77;;;;;;;;;;12642999;28;20043;-81
2022/03/24 19:45:40;;;;;;;15.00;10.93;;;;;;;;;;12642593;28;20040;-83
2022/03/24 19:51:42;;;;;;;14.27;11.23;;;;;;;;;;12642282;28;20040;-85
2022/03/24 19:57:43;;;;;;;11.10;9.37;;;;;;;;;;12657368;28;20048;-81
2022/03/24 20:03:45;;;;;;;13.00;11.48;;;;;;;;;;12651830;28;20028;-81
2022/03/24 20:09:47;;;;;;;14.38;11.15;;;;;;;;;;12653690;28;20031;-83
2022/03/24 20:15:49;;;;;;;13.37;11.23;;;;;;;;;;12652234;28;20032;-84
2022/03/24 20:21:51;;;;;;;13.32;10.15;;;;;;;;;;12652110;28;20044;-88
2022/03/24 20:27:54;;;;;;;14.23;10.38;;;;;;;;;;12652066;28;20058;-86
2022/03/24 20:33:55;;;;;;;13.10;10.00;;;;;;;;;;12650331;28;20047;-84
2022/03/24 20:39:59;;;;;;;14.02;9.45;;;;;;;;;;12661658;28;20024;-79
2022/03/24 20:46:01;;;;;;;13.10;8.77;;;;;;;;;;12653920;28;20405;-80
2022/03/24 20:52:03;;;;;;;11.57;9.13;;;;;;;;;;12656917;28;20031;-83
2022/03/24 20:58:05;;;;;;;10.17;9.17;;;;;;;;;;12658284;28;20028;-79
2022/03/24 21:04:08;;;;;;;11.57;9.35;;;;;;;;;;12654588;28;20040;-87
2022/03/24 21:10:09;;;;;;;;;;;;;;;;;;12650315;28;20028;-82
2022/03/24 21:16:18;;;;;;;12.32;9.93;;;;;;;;;;12648142;28;19912;-81
2022/03/24 21:22:19;;;;;;;10.82;8.77;;;;;;;;;;12649109;28;20047;-82
2022/03/24 21:28:21;;;;;;;10.90;9.05;;;;;;;;;;12649052;28;20064;-81
2022/03/24 21:34:23;;;;;;;12.90;9.40;;;;;;;;;;12658439;28;20040;-82
2022/03/24 21:40:24;;;;;;;9.93;7.45;;;;;;;;;;12650118;28;20392;-81
2022/03/24 21:46:27;;;;;;;10.68;9.38;;;;;;;;;;12646860;28;20040;-83
2022/03/24 21:52:29;;;;;;;9.55;7.20;;;;;;;;;;12646630;28;20043;-82
2022/03/24 21:58:30;;;;;;;14.25;11.35;;;;;;;;;;12648527;28;20048;-82
2022/03/24 22:04:32;;;;;;;13.40;11.38;;;;;;;;;;12647625;28;20024;-82
2022/03/24 22:10:34;;;;;;;13.75;10.68;;;;;;;;;;12646953;28;20032;-82
2022/03/24 22:16:36;;;;;;;16.33;13.30;;;;;;;;;;12627724;28;20036;-83
2022/03/24 22:22:37;;;;;;;14.27;12.18;;;;;;;;;;12646461;28;20032;-83
2022/03/24 22:28:39;;;;;;;19.48;12.68;;;;;;;;;;12645294;28;20056;-83
2022/03/24 22:34:41;;;;;;;18.45;15.00;;;;;;;;;;12644648;28;20043;-83
2022/03/24 22:40:42;;;;;;;18.45;15.52;;;;;;;;;;12643792;28;20367;-83
2022/03/24 22:46:44;;;;;;;18.17;14.32;;;;;;;;;;12627409;28;20504;-83
2022/03/24 22:52:46;;;;;;;16.98;13.40;;;;;;;;;;12655383;28;20032;-82
2022/03/24 22:58:48;;;;;;;18.25;13.40;;;;;;;;;;12644790;28;20048;-82
2022/03/24 23:04:50;;;;;;;21.53;16.13;;;;;;;;;;12643241;28;20111;-83
2022/03/24 23:10:51;;;;;;;17.23;13.57;;;;;;;;;;12626256;28;20035;-83
2022/03/24 23:16:53;;;;;;;20.98;16.90;;;;;;;;;;12644271;28;20032;-83
2022/03/24 23:22:55;;;;;;;19.35;15.93;;;;;;;;;;12642879;28;20401;-83
2022/03/24 23:28:57;;;;;;;17.17;14.20;;;;;;;;;;12642539;28;20401;-82
2022/03/24 23:34:59;;;;;;;18.55;14.75;;;;;;;;;;12625630;28;20489;-82
2022/03/24 23:41:00;;;;;;;13.55;11.02;;;;;;;;;;12642416;28;20044;-82
2022/03/24 23:47:03;;;;;;;15.27;11.88;;;;;;;;;;12625210;28;20036;-83
2022/03/24 23:53:05;;;;;;;18.87;15.03;;;;;;;;;;12643450;28;20055;-83
2022/03/24 23:59:06;;;;;;;25.27;20.30;;;;;;;;;;12644242;28;20310;-83
